Terminal Aerodrome Forecast
Issued by NWS Cleveland, OH

Home | Current Version | Previous Version | Graphics & Text | Print | Product List | Glossary On
Versions: 1 2 3 4 5 6 7 8 9 10 11 12 13 14 15 16 17 18 19 20 21 22 23 24 25 26
000
FTUS41 KCLE 230500
TAFERI
TAF
KERI 230537Z 2306/2406 36006KT P6SM SCT025 BKN035
      TEMPO 2306/2310 BKN025
     FM231200 36006KT P6SM SCT035
     FM231600 32008KT P6SM SKC
     FM232300 32004KT P6SM SCT250=

USA.gov is the U.S. government's official web portal to all federal, state and local government web resources and services.